Time;durP1;ratioP1;P1;durP2;ratioP2;P2;SDS_P1;SDS_P2;PMS_P1;PMS_P2;Temp;Humidity;BMP_temperature;BMP_pressure;BME280_temperature;BME280_humidity;BME280_pressure;Samples;Min_cycle;Max_cycle;Signal;HPM_P1;HPM_P2
2022/03/18 00:02:21;;;;;;;9.37;5.57;;;;;;;0.46;93.00;102599.13;5051458;28;20047;-81
2022/03/18 00:04:48;;;;;;;10.40;5.40;;;;;;;0.08;93.65;102594.81;5052103;28;20093;-80
2022/03/18 00:07:15;;;;;;;11.13;4.73;;;;;;;-0.12;94.67;102612.88;5051990;28;20040;-80
2022/03/18 00:09:41;;;;;;;7.70;4.77;;;;;;;-0.38;nan;102590.47;5052062;28;20056;-81
2022/03/18 00:12:08;;;;;;;10.30;5.03;;;;;;;-0.54;96.33;102614.06;5051659;28;20082;-78
2022/03/18 00:14:34;;;;;;;8.10;4.67;;;;;;;-0.74;97.54;102603.22;5051939;28;20045;-79
2022/03/18 00:17:00;;;;;;;11.27;4.93;;;;;;;-0.76;97.93;102609.75;5050674;28;20056;-80
2022/03/18 00:19:27;;;;;;;10.47;5.17;;;;;;;-1.09;99.37;102605.97;5051954;28;20468;-79
2022/03/18 00:22:00;;;;;;;8.57;5.30;;;;;;;-0.91;99.95;102619.00;5052104;28;20029;-78
2022/03/18 00:24:26;;;;;;;12.03;5.20;;;;;;;-1.07;99.92;102616.28;5050525;28;20028;-80
2022/03/18 00:26:51;;;;;;;10.33;4.97;;;;;;;-1.11;99.53;102619.19;5050254;28;20032;-79
2022/03/18 00:29:17;;;;;;;9.07;5.23;;;;;;;-1.20;100.00;102621.53;5051754;28;20028;-80
2022/03/18 00:31:43;;;;;;;12.23;5.57;;;;;;;-1.15;100.00;102622.97;5051230;28;20757;-80
2022/03/18 00:34:10;;;;;;;9.87;5.27;;;;;;;-1.17;100.00;102594.03;5050331;28;20646;-80
2022/03/18 00:36:36;;;;;;;13.07;5.50;;;;;;;-0.94;99.75;102590.75;5051444;28;20029;-79
2022/03/18 00:39:02;;;;;;;8.30;5.33;;;;;;;-0.87;98.45;102571.38;5046797;28;20052;-79
2022/03/18 00:41:28;;;;;;;11.13;5.60;;;;;;;-0.59;97.40;102597.41;5051153;28;20078;-80
2022/03/18 00:43:54;;;;;;;9.70;5.60;;;;;;;-0.43;97.11;102601.72;5051646;28;20485;-81
2022/03/18 00:46:22;;;;;;;11.47;5.30;;;;;;;-0.38;96.83;102600.63;5049275;28;20039;-78
2022/03/18 00:54:17;;;;;;;9.30;5.60;;;;;;;-1.25;97.16;102557.63;5051163;28;20048;-80
2022/03/18 00:56:43;;;;;;;9.83;5.33;;;;;;;-1.02;97.72;102584.81;5051247;28;20036;-79
2022/03/18 00:59:09;;;;;;;13.27;6.50;;;;;;;-1.15;97.41;102549.47;5050948;28;20029;-78
2022/03/18 01:01:34;;;;;;;11.30;5.77;;;;;;;-0.87;97.10;102609.41;5051055;28;20029;-78
2022/03/18 01:04:00;;;;;;;12.43;5.60;;;;;;;-0.96;97.48;102594.75;5050719;28;20471;-80
2022/03/18 01:06:25;;;;;;;11.60;5.50;;;;;;;-0.84;97.01;102612.28;5051359;28;20465;-80
2022/03/18 01:08:50;;;;;;;12.00;5.27;;;;;;;-1.21;96.69;102531.94;5049566;28;20400;-79
2022/03/18 01:11:16;;;;;;;10.03;5.37;;;;;;;-0.73;96.57;102611.00;5050900;28;20029;-77
2022/03/18 01:13:41;;;;;;;9.93;5.43;;;;;;;-0.85;96.89;102595.28;5050526;28;20060;-79
2022/03/18 01:16:07;;;;;;;11.37;5.07;;;;;;;-0.70;96.30;102618.06;5050139;28;20025;-79
2022/03/18 01:18:32;;;;;;;7.73;5.23;;;;;;;-0.74;96.46;102603.22;5050838;28;20028;-78
2022/03/18 01:20:58;;;;;;;10.10;5.17;;;;;;;-1.35;96.24;102524.31;5050838;28;20147;-78
2022/03/18 01:23:23;;;;;;;10.90;5.80;;;;;;;-1.10;97.42;102626.97;5050938;28;20395;-80
2022/03/18 01:25:49;;;;;;;10.53;5.73;;;;;;;-1.22;98.09;102605.22;5049686;28;20033;-77
2022/03/18 01:28:15;;;;;;;11.73;5.70;;;;;;;-1.06;98.06;102633.31;5050690;28;20028;-77
2022/03/18 01:30:41;;;;;;;10.70;5.37;;;;;;;-1.02;97.74;102613.56;5050414;28;20024;-80
2022/03/18 01:33:07;;;;;;;11.67;6.03;;;;;;;-0.93;96.79;102610.31;5050346;28;20407;-80
2022/03/18 01:35:32;;;;;;;13.63;6.27;;;;;;;-1.07;97.00;102568.13;5049062;28;20116;-80
2022/03/18 01:37:58;;;;;;;12.47;6.10;;;;;;;-0.76;96.87;102608.13;5050612;28;20031;-80
2022/03/18 01:40:23;;;;;;;11.50;5.60;;;;;;;-0.66;95.88;102589.81;5050559;28;20040;-79
2022/03/18 01:42:49;;;;;;;9.03;5.40;;;;;;;-0.48;94.76;102597.75;5050727;28;20032;-80
2022/03/18 01:45:14;;;;;;;9.43;5.50;;;;;;;-0.41;94.30;102603.72;5050642;28;20029;-79
2022/03/18 01:47:43;;;;;;;9.23;5.87;;;;;;;-0.42;94.65;102596.81;5050818;28;20032;-79
2022/03/18 01:50:13;;;;;;;9.55;4.97;;;;;;;-0.36;94.36;102610.22;5050719;28;20039;-79
2022/03/18 01:52:39;;;;;;;12.13;6.10;;;;;;;-0.46;94.45;102614.97;5049008;28;20128;-79
2022/03/18 01:55:05;;;;;;;8.93;5.50;;;;;;;-1.27;95.71;102561.63;5050373;28;20109;-78
2022/03/18 01:57:30;;;;;;;10.93;6.27;;;;;;;-1.66;97.61;102571.34;5050440;28;20029;-78
2022/03/18 01:59:58;;;;;;;9.90;5.07;;;;;;;-1.65;98.96;102624.69;5050571;28;20095;-80
2022/03/18 02:02:24;;;;;;;10.17;5.50;;;;;;;-2.04;100.00;102615.75;5048776;28;20545;-79
2022/03/18 02:04:50;;;;;;;11.17;5.60;;;;;;;-2.28;100.00;102617.97;5032492;28;20040;-80
2022/03/18 02:07:15;;;;;;;12.43;7.77;;;;;;;-2.12;100.00;102623.28;5050007;28;20029;-78
2022/03/18 02:09:42;;;;;;;18.20;13.37;;;;;;;-2.25;100.00;102617.44;5050272;28;20033;-78
2022/03/18 02:12:09;;;;;;;22.70;15.33;;;;;;;-2.45;100.00;102620.03;5050380;28;20033;-78
2022/03/18 02:14:43;;;;;;;19.47;11.93;;;;;;;-2.67;100.00;102603.81;5050277;28;20049;-78
2022/03/18 02:17:11;;;;;;;21.83;10.57;;;;;;;-2.94;100.00;102592.06;5050333;28;20029;-78
2022/03/18 02:19:38;;;;;;;24.90;13.00;;;;;;;-2.95;100.00;102625.66;5050398;28;20087;-78
2022/03/18 02:22:10;;;;;;;14.57;7.93;;;;;;;-2.97;100.00;102619.50;5045972;28;20033;-78
2022/03/18 02:24:38;;;;;;;11.63;6.10;;;;;;;-3.12;100.00;102632.00;5035296;28;20095;-81
2022/03/18 02:27:05;;;;;;;13.63;7.10;;;;;;;-3.12;100.00;102643.75;5032903;28;20400;-80
2022/03/18 02:29:31;;;;;;;10.23;6.03;;;;;;;-3.16;100.00;102629.81;5033809;28;20526;-85
2022/03/18 02:31:57;;;;;;;11.53;6.60;;;;;;;-3.16;100.00;102631.44;5048625;28;20119;-80
2022/03/18 02:34:23;;;;;;;13.47;6.40;;;;;;;-3.16;100.00;102647.50;5050838;28;20021;-80
2022/03/18 02:36:49;;;;;;;13.43;7.37;;;;;;;-3.45;100.00;102606.81;5053203;28;20041;-80
2022/03/18 02:39:14;;;;;;;11.33;6.10;;;;;;;-3.65;100.00;102601.75;5051332;28;20024;-80
2022/03/18 02:41:40;;;;;;;13.87;5.93;;;;;;;-3.47;100.00;102651.16;5052481;28;20033;-80
2022/03/18 02:44:06;;;;;;;9.87;5.90;;;;;;;-3.55;100.00;102650.88;5052109;28;20477;-79
2022/03/18 02:46:32;;;;;;;30.07;16.97;;;;;;;-3.52;100.00;102662.28;5053624;28;20040;-80
2022/03/18 02:49:02;;;;;;;13.87;6.87;;;;;;;-3.38;100.00;102661.53;5053590;28;20071;-80
2022/03/18 02:51:28;;;;;;;18.67;12.73;;;;;;;-3.50;100.00;102670.97;5053468;28;20025;-79
2022/03/18 02:53:55;;;;;;;16.47;6.33;;;;;;;-3.65;100.00;102661.41;5053454;28;20064;-79
2022/03/18 02:56:21;;;;;;;13.50;6.67;;;;;;;-3.67;100.00;102663.75;5053369;28;20473;-79
2022/03/18 02:58:46;;;;;;;10.33;6.20;;;;;;;-3.59;100.00;102674.81;5053319;28;20127;-85
2022/03/18 03:01:11;;;;;;;15.20;8.07;;;;;;;-3.51;100.00;102663.22;5052583;28;20033;-79
2022/03/18 03:03:37;;;;;;;10.17;5.67;;;;;;;-3.53;100.00;102677.25;5051689;28;20483;-77
2022/03/18 03:08:47;;;;;;;13.20;6.27;;;;;;;-3.72;100.00;102671.44;5053056;28;20113;-80
2022/03/18 03:11:12;;;;;;;12.50;6.83;;;;;;;-3.71;100.00;102653.03;5052958;28;20131;-81
2022/03/18 03:13:38;;;;;;;11.73;6.80;;;;;;;-3.54;100.00;102666.22;5052819;28;20499;-81
2022/03/18 03:16:04;;;;;;;12.03;7.10;;;;;;;-3.49;100.00;102666.81;5050100;28;20051;-78
2022/03/18 03:18:29;;;;;;;10.07;6.23;;;;;;;-3.48;100.00;102664.47;5049999;28;20146;-77
2022/03/18 03:23:26;;;;;;;12.43;6.87;;;;;;;-2.99;100.00;102672.38;5009405;28;20080;-81
2022/03/18 03:25:53;;;;;;;14.73;7.00;;;;;;;-2.78;100.00;102681.78;5028383;28;20041;-81
2022/03/18 03:28:19;;;;;;;13.87;8.20;;;;;;;-2.68;100.00;102687.97;5048480;28;20046;-80
2022/03/18 03:30:44;;;;;;;21.37;10.83;;;;;;;-2.64;100.00;102672.50;5023050;28;20791;-80
2022/03/18 03:33:10;;;;;;;15.87;7.60;;;;;;;-2.39;100.00;102688.19;5017907;28;20033;-80
2022/03/18 03:35:36;;;;;;;21.63;11.50;;;;;;;-2.47;100.00;102654.34;5012673;28;20495;-78
2022/03/18 03:38:02;;;;;;;14.00;7.43;;;;;;;-3.13;100.00;102630.22;5012733;28;20030;-80
2022/03/18 03:40:28;;;;;;;14.90;7.10;;;;;;;-2.97;100.00;102686.09;5013297;28;20018;-78
2022/03/18 03:42:54;;;;;;;17.83;6.80;;;;;;;-2.80;100.00;102692.41;5012841;28;20127;-79
2022/03/18 03:45:19;;;;;;;19.27;11.10;;;;;;;-2.70;100.00;102681.84;5012870;28;20034;-81
2022/03/18 03:47:45;;;;;;;23.77;12.40;;;;;;;-3.04;100.00;102634.59;5011478;28;20026;-79
2022/03/18 03:50:11;;;;;;;12.80;7.10;;;;;;;-2.90;100.00;102687.81;5013123;28;20364;-80
2022/03/18 03:52:37;;;;;;;10.47;6.73;;;;;;;-2.96;100.00;102697.13;5013123;28;20022;-78
2022/03/18 03:55:04;;;;;;;12.23;6.30;;;;;;;-2.83;100.00;102700.50;5013191;28;20096;-79
2022/03/18 03:57:30;;;;;;;12.53;8.10;;;;;;;-2.85;100.00;102699.41;5012906;28;20029;-82
2022/03/18 03:59:55;;;;;;;18.33;8.97;;;;;;;-3.02;100.00;102673.63;5013168;28;20029;-81
2022/03/18 04:02:22;;;;;;;19.30;10.93;;;;;;;-2.71;100.00;102718.84;5012646;28;20022;-80
2022/03/18 04:04:48;;;;;;;13.73;8.83;;;;;;;-2.72;100.00;102711.06;5012489;28;20061;-79
2022/03/18 04:07:14;;;;;;;14.10;7.30;;;;;;;-2.97;100.00;102707.94;5012848;28;20365;-80
2022/03/18 04:09:39;;;;;;;15.93;7.13;;;;;;;-3.13;100.00;102711.06;5012533;28;20032;-79
2022/03/18 04:12:05;;;;;;;9.07;6.20;;;;;;;-3.16;100.00;102723.28;5012668;28;20400;-78
2022/03/18 04:14:30;;;;;;;14.63;6.30;;;;;;;-3.60;100.00;102723.50;5012486;28;20022;-80
2022/03/18 04:16:57;;;;;;;11.77;6.77;;;;;;;-3.76;100.00;102719.00;5000456;28;20039;-79
2022/03/18 04:19:23;;;;;;;19.37;11.77;;;;;;;-3.81;100.00;102714.97;4993305;28;20038;-80
2022/03/18 04:21:50;;;;;;;16.93;10.43;;;;;;;-3.78;100.00;102722.91;5005017;28;20420;-80
2022/03/18 04:24:15;;;;;;;15.53;8.43;;;;;;;-3.69;100.00;102738.34;5012031;28;20045;-78
2022/03/18 04:27:01;;;;;;;17.10;7.63;;;;;;;-3.56;100.00;102735.84;5048832;28;20099;-80
2022/03/18 04:29:26;;;;;;;13.07;7.97;;;;;;;-3.53;100.00;102737.84;5047247;28;20869;-79
2022/03/18 04:31:52;;;;;;;13.77;7.80;;;;;;;-3.38;100.00;102743.97;5048587;28;20086;-80
2022/03/18 04:34:18;;;;;;;20.83;10.13;;;;;;;-3.52;100.00;102755.72;5049169;28;20037;-80
2022/03/18 04:36:44;;;;;;;18.77;11.23;;;;;;;-3.57;100.00;102739.06;5048708;28;20094;-79
2022/03/18 04:39:10;;;;;;;20.50;11.17;;;;;;;-3.56;100.00;102753.50;5049009;28;20056;-79
2022/03/18 04:41:35;;;;;;;25.87;12.63;;;;;;;-3.67;100.00;102766.34;5049012;28;20476;-79
2022/03/18 04:44:01;;;;;;;22.03;13.47;;;;;;;-3.80;100.00;102747.06;5048851;28;20043;-78
2022/03/18 04:46:28;;;;;;;60.90;32.80;;;;;;;-3.66;100.00;102760.59;5048864;28;20451;-78
2022/03/18 04:48:54;;;;;;;23.60;14.83;;;;;;;-3.56;100.00;102766.13;5048328;28;20037;-78
2022/03/18 04:51:20;;;;;;;23.67;12.60;;;;;;;-3.37;100.00;102768.53;5046356;28;20430;-79
2022/03/18 04:53:46;;;;;;;20.40;11.07;;;;;;;-3.27;100.00;102766.47;5028527;28;20041;-78
2022/03/18 04:57:15;;;;;;;16.63;11.03;;;;;;;-3.23;100.00;102761.09;5028497;28;20108;-78
2022/03/18 04:58:57;;;;;;;22.63;11.60;;;;;;;-3.09;100.00;102778.03;4997617;28;20036;-78
2022/03/18 05:01:23;;;;;;;15.67;9.77;;;;;;;-3.06;100.00;102775.03;5011250;28;20089;-80
2022/03/18 05:03:49;;;;;;;16.80;8.57;;;;;;;-2.93;98.70;102791.03;5011042;28;20030;-81
2022/03/18 05:06:15;;;;;;;13.13;7.70;;;;;;;-2.93;97.79;102789.44;5011043;28;20041;-81
2022/03/18 05:08:40;;;;;;;14.60;7.60;;;;;;;-3.06;97.41;102788.56;5026543;28;20381;-81
2022/03/18 05:11:05;;;;;;;14.67;7.07;;;;;;;-3.14;98.29;102799.28;5025373;28;20025;-80
2022/03/18 05:13:31;;;;;;;11.20;6.43;;;;;;;-3.48;98.75;102742.75;5005150;28;20045;-85
2022/03/18 05:15:56;;;;;;;12.63;5.87;;;;;;;-3.20;98.27;102798.47;5004584;28;20033;-85
2022/03/18 05:18:22;;;;;;;11.83;6.23;;;;;;;-3.19;98.33;102775.03;5007229;28;20022;-77
2022/03/18 05:20:48;;;;;;;11.10;6.17;;;;;;;-3.07;98.20;102786.72;5006391;28;20034;-78
2022/03/18 05:23:14;;;;;;;9.23;5.97;;;;;;;-3.03;98.68;102801.56;5009285;28;20046;-78
2022/03/18 05:25:40;;;;;;;12.43;6.53;;;;;;;-3.21;98.92;102766.38;5005940;28;20128;-78
2022/03/18 05:28:07;;;;;;;14.00;8.23;;;;;;;-2.93;97.79;102797.00;5001365;28;20053;-81
2022/03/18 05:30:33;;;;;;;17.90;9.10;;;;;;;-2.79;97.26;102808.88;5004273;28;20026;-81
2022/03/18 05:32:59;;;;;;;12.83;7.80;;;;;;;-2.60;96.85;102813.75;5008541;28;20495;-81
2022/03/18 05:35:24;;;;;;;15.10;8.77;;;;;;;-2.37;96.71;102787.94;4994769;28;20035;-86
2022/03/18 05:37:50;;;;;;;16.93;9.63;;;;;;;-1.90;95.36;102828.44;5002612;28;20038;-86
2022/03/18 05:40:18;;;;;;;15.37;8.80;;;;;;;-1.75;95.12;102823.47;5026141;28;20045;-87
2022/03/18 05:42:46;;;;;;;14.83;7.73;;;;;;;-1.70;95.87;102808.13;5010543;28;20034;-83
2022/03/18 05:45:12;;;;;;;12.03;6.27;;;;;;;-1.62;93.52;102796.41;5010952;28;20038;-83
2022/03/18 05:47:38;;;;;;;11.10;7.80;;;;;;;-1.36;90.34;102821.50;5025077;28;20478;-82
2022/03/18 05:50:06;;;;;;;12.67;8.03;;;;;;;-1.37;89.60;102832.34;5009777;28;20041;-80
2022/03/18 05:52:32;;;;;;;14.60;6.47;;;;;;;-1.56;86.28;102835.16;5010761;28;20404;-80
2022/03/18 05:54:58;;;;;;;10.33;6.40;;;;;;;-1.84;87.48;102840.97;5010533;28;20041;-83
2022/03/18 05:57:26;;;;;;;13.13;6.87;;;;;;;-2.03;89.06;102822.53;4994889;28;20596;-82
2022/03/18 05:59:53;;;;;;;11.10;5.57;;;;;;;-2.17;89.75;102834.41;4991116;28;20023;-81
2022/03/18 06:02:18;;;;;;;13.00;6.23;;;;;;;-2.18;88.62;102822.44;5023680;28;20033;-81
2022/03/18 06:04:44;;;;;;;12.73;6.20;;;;;;;-2.17;90.59;102788.84;5016885;28;20056;-86
2022/03/18 06:07:09;;;;;;;14.73;7.43;;;;;;;-1.88;89.62;102809.28;5003307;28;20423;-82
2022/03/18 06:12:18;;;;;;;11.67;6.70;;;;;;;-1.72;87.76;102851.69;5007541;28;20172;-79
2022/03/18 06:14:44;;;;;;;11.73;7.33;;;;;;;-2.04;85.33;102803.03;5019679;28;20030;-80
2022/03/18 06:17:09;;;;;;;15.37;8.97;;;;;;;-1.98;85.60;102796.22;5012477;28;20026;-79
2022/03/18 06:19:35;;;;;;;13.33;6.67;;;;;;;-1.54;86.51;102845.50;5014391;28;20021;-78
2022/03/18 06:22:01;;;;;;;15.67;9.00;;;;;;;-1.47;85.13;102848.97;5002953;28;20054;-79
2022/03/18 06:24:27;;;;;;;12.87;7.63;;;;;;;-1.49;85.18;102835.19;4994614;28;20045;-79
2022/03/18 06:26:53;;;;;;;11.17;6.07;;;;;;;-1.32;85.61;102846.53;4992001;28;20481;-78
2022/03/18 06:29:20;;;;;;;12.37;6.00;;;;;;;-1.16;83.58;102845.16;4994197;28;20398;-79
2022/03/18 06:31:46;;;;;;;13.00;7.37;;;;;;;-1.18;83.57;102828.84;4993992;28;20088;-77
2022/03/18 06:34:11;;;;;;;9.63;6.23;;;;;;;-0.95;83.83;102824.75;5001001;28;20032;-77
2022/03/18 06:36:38;;;;;;;13.40;7.33;;;;;;;-0.89;79.89;102795.97;5014293;28;20041;-77
2022/03/18 06:39:04;;;;;;;11.67;6.67;;;;;;;-0.45;74.30;102808.72;5014344;28;20037;-77
2022/03/18 06:41:29;;;;;;;10.77;6.83;;;;;;;0.08;74.48;102843.72;5013810;28;20479;-79
2022/03/18 06:43:57;;;;;;;11.37;5.97;;;;;;;0.17;73.00;102842.25;5013965;28;20516;-79
2022/03/18 06:46:23;;;;;;;11.53;5.40;;;;;;;0.14;72.83;102852.97;5012716;28;20416;-81
2022/03/18 06:48:48;;;;;;;10.60;6.43;;;;;;;0.08;72.08;102857.31;5014080;28;20042;-84
2022/03/18 06:51:14;;;;;;;15.50;5.47;;;;;;;0.20;72.25;102864.56;5013994;28;20037;-77
2022/03/18 06:53:40;;;;;;;10.57;5.80;;;;;;;0.09;73.99;102846.44;5013824;28;20037;-77
2022/03/18 06:56:06;;;;;;;10.67;5.70;;;;;;;0.13;74.50;102835.00;5013652;28;20544;-77
2022/03/18 06:58:32;;;;;;;15.57;9.27;;;;;;;0.57;74.35;102871.41;5013959;28;20065;-78
2022/03/18 07:00:57;;;;;;;13.70;7.20;;;;;;;0.59;70.68;102827.63;5013764;28;20483;-77
2022/03/18 07:03:26;;;;;;;8.97;5.40;;;;;;;1.05;64.61;102857.41;5013286;28;20034;-77
2022/03/18 07:05:51;;;;;;;9.10;5.40;;;;;;;1.40;65.80;102870.69;5013760;28;20409;-77
2022/03/18 07:08:17;;;;;;;12.97;6.27;;;;;;;1.69;64.10;102878.13;5013641;28;20042;-77
2022/03/18 07:10:43;;;;;;;10.00;6.27;;;;;;;1.20;60.92;102826.81;5013158;28;20026;-76
2022/03/18 07:13:08;;;;;;;9.77;5.37;;;;;;;1.21;60.65;102861.69;5012533;28;20037;-77
2022/03/18 07:15:34;;;;;;;12.07;5.23;;;;;;;1.26;60.02;102848.78;5013191;28;20033;-79
2022/03/18 07:17:59;;;;;;;9.47;5.97;;;;;;;0.98;57.57;102826.94;5013557;28;20029;-77
2022/03/18 07:20:29;;;;;;;7.97;4.93;;;;;;;1.17;56.16;102870.63;5013262;28;20030;-79
2022/03/18 07:23:06;;;;;;;10.13;6.30;;;;;;;0.98;57.42;102829.47;5049930;28;20079;-79
2022/03/18 07:25:33;;;;;;;8.70;5.17;;;;;;;1.45;55.49;102877.19;5050326;28;20047;-80
2022/03/18 07:27:58;;;;;;;9.27;4.97;;;;;;;1.69;55.60;102879.78;5050240;28;20052;-80
2022/03/18 07:30:24;;;;;;;10.83;5.67;;;;;;;1.73;53.77;102874.28;5050210;28;20037;-79
2022/03/18 07:32:50;;;;;;;10.93;5.73;;;;;;;1.80;55.46;102886.06;5033522;28;20052;-79
2022/03/18 07:35:16;;;;;;;11.33;5.50;;;;;;;1.84;53.46;102865.28;5050184;28;20451;-79
2022/03/18 07:37:41;;;;;;;9.57;4.77;;;;;;;1.61;52.80;102873.84;5050401;28;20072;-79
2022/03/18 07:40:08;;;;;;;9.03;5.80;;;;;;;1.83;52.76;102871.13;5049967;28;20029;-80
2022/03/18 07:42:42;;;;;;;9.43;5.67;;;;;;;1.89;52.53;102861.63;5050135;28;20045;-79
2022/03/18 07:45:09;;;;;;;11.27;6.30;;;;;;;1.91;52.97;102872.88;5050068;28;20048;-79
2022/03/18 07:47:35;;;;;;;9.33;5.10;;;;;;;2.07;51.76;102876.38;5049874;28;20506;-78
2022/03/18 07:50:00;;;;;;;7.70;4.37;;;;;;;2.43;50.53;102872.59;5049926;28;20112;-79
2022/03/18 07:52:26;;;;;;;10.50;5.83;;;;;;;2.67;52.04;102876.88;5049466;28;20032;-78
2022/03/18 07:54:51;;;;;;;7.17;4.63;;;;;;;2.52;50.37;102871.03;5016358;28;20052;-79
2022/03/18 07:57:17;;;;;;;9.83;4.90;;;;;;;2.36;48.20;102872.66;5012453;28;20448;-79
2022/03/18 07:59:42;;;;;;;10.20;6.37;;;;;;;2.46;50.49;102846.53;5012796;28;20032;-78
2022/03/18 08:02:08;;;;;;;9.83;5.53;;;;;;;2.52;46.94;102849.75;5027711;28;20072;-78
2022/03/18 08:04:36;;;;;;;8.50;5.87;;;;;;;2.62;48.93;102872.00;5026645;28;20042;-78
2022/03/18 08:07:02;;;;;;;10.63;7.60;;;;;;;2.85;48.41;102864.28;5014175;28;20034;-78
2022/03/18 08:09:28;;;;;;;8.07;5.00;;;;;;;2.80;46.32;102863.78;5012458;28;20080;-78
2022/03/18 08:11:54;;;;;;;17.40;8.57;;;;;;;2.58;46.11;102819.81;5012342;28;20030;-78
2022/03/18 08:14:19;;;;;;;12.97;6.97;;;;;;;2.70;45.40;102855.91;5012426;28;20030;-78
2022/03/18 08:16:45;;;;;;;8.40;5.93;;;;;;;2.65;46.98;102852.84;5011931;28;20560;-78
2022/03/18 08:19:11;;;;;;;9.93;5.97;;;;;;;2.41;45.36;102835.84;5027434;28;20121;-77
2022/03/18 08:21:36;;;;;;;9.50;5.77;;;;;;;2.46;46.60;102834.69;5012042;28;20030;-78
2022/03/18 08:24:03;;;;;;;7.77;5.10;;;;;;;2.60;46.12;102841.25;5012050;28;20029;-78
2022/03/18 08:26:28;;;;;;;9.37;5.57;;;;;;;2.81;46.75;102832.44;5012212;28;20107;-78
2022/03/18 08:28:54;;;;;;;8.30;5.17;;;;;;;2.86;45.03;102826.19;5012181;28;20080;-78
2022/03/18 08:31:19;;;;;;;9.60;5.47;;;;;;;2.95;44.32;102810.94;5012233;28;20033;-80
2022/03/18 08:33:46;;;;;;;11.03;4.23;;;;;;;3.16;45.45;102824.16;5010903;28;20038;-80
2022/03/18 08:36:11;;;;;;;25.27;7.40;;;;;;;3.04;44.27;102816.09;5011882;28;20499;-81
2022/03/18 08:38:39;;;;;;;13.83;5.20;;;;;;;3.31;43.86;102819.75;5011912;28;20040;-80
2022/03/18 08:41:05;;;;;;;10.75;5.50;;;;;;;3.16;42.52;102801.19;5012212;28;20032;-80
2022/03/18 08:43:50;;;;;;;7.43;4.03;;;;;;;3.46;42.81;102798.34;5011950;28;20172;-80
2022/03/18 08:46:16;;;;;;;5.95;3.70;;;;;;;3.22;40.80;102756.78;5028866;28;20131;-81
2022/03/18 08:48:43;;;;;;;13.27;6.95;;;;;;;3.37;41.24;102793.19;5028926;28;20512;-80
2022/03/18 08:51:11;;;;;;;6.63;3.65;;;;;;;3.09;41.45;102748.63;5029058;28;20049;-80
2022/03/18 08:53:37;;;;;;;9.87;7.53;;;;;;;3.31;41.18;102799.31;5028998;28;20034;-80
2022/03/18 08:56:03;;;;;;;8.30;4.07;;;;;;;3.43;42.18;102794.56;5028995;28;20416;-80
2022/03/18 08:58:29;;;;;;;7.07;3.65;;;;;;;3.69;39.27;102789.63;5028878;28;20048;-80
2022/03/18 09:00:54;;;;;;;7.15;3.53;;;;;;;3.83;39.86;102751.03;5028766;28;20037;-80
2022/03/18 09:03:20;;;;;;;6.45;3.15;;;;;;;4.16;38.18;102793.53;5028661;28;20033;-81
2022/03/18 09:05:45;;;;;;;7.53;3.67;;;;;;;4.26;39.53;102797.00;5028757;28;20124;-81
2022/03/18 09:08:11;;;;;;;6.38;4.00;;;;;;;4.41;39.55;102802.72;5028756;28;20040;-81
2022/03/18 09:10:36;;;;;;;11.35;6.65;;;;;;;4.43;41.65;102794.44;5012120;28;20091;-81
2022/03/18 09:13:02;;;;;;;5.10;3.20;;;;;;;4.52;38.22;102768.88;5028648;28;20052;-80
2022/03/18 09:15:29;;;;;;;7.13;3.80;;;;;;;4.78;40.06;102776.53;5028565;28;20088;-81
2022/03/18 09:17:55;;;;;;;8.13;3.97;;;;;;;5.02;39.10;102788.28;5015247;28;20497;-80
2022/03/18 09:20:21;;;;;;;6.78;3.17;;;;;;;4.89;36.75;102771.59;5042164;28;20095;-80
2022/03/18 09:22:46;;;;;;;6.07;3.80;;;;;;;5.02;37.04;102772.91;5011214;28;20567;-80
2022/03/18 09:25:14;;;;;;;6.72;3.60;;;;;;;5.00;36.44;102773.53;5011366;28;20030;-80
2022/03/18 09:27:40;;;;;;;8.60;4.20;;;;;;;5.00;38.22;102773.53;5011528;28;20030;-80
2022/03/18 09:30:08;;;;;;;6.00;3.70;;;;;;;4.98;36.14;102747.75;5011066;28;20030;-80
2022/03/18 09:32:33;;;;;;;7.50;3.90;;;;;;;5.24;37.55;102769.84;5001737;28;20113;-80
2022/03/18 09:34:59;;;;;;;5.85;3.50;;;;;;;5.27;37.92;102767.59;5000876;28;20110;-80
2022/03/18 09:37:25;;;;;;;6.65;3.90;;;;;;;5.34;36.95;102743.47;5008068;28;20481;-84
2022/03/18 09:39:50;;;;;;;5.50;3.33;;;;;;;5.60;35.92;102760.41;5011378;28;20042;-81
2022/03/18 09:42:16;;;;;;;5.22;3.53;;;;;;;5.58;34.71;102744.91;5011345;28;20045;-81
2022/03/18 09:44:41;;;;;;;11.73;7.03;;;;;;;5.50;37.94;102720.19;5011353;28;20096;-80
2022/03/18 09:47:08;;;;;;;7.05;4.32;;;;;;;5.48;36.62;102737.06;5009747;28;20120;-81
2022/03/18 09:49:35;;;;;;;14.65;9.30;;;;;;;5.49;36.08;102764.50;5025228;28;20501;-80
2022/03/18 09:52:02;;;;;;;8.32;4.10;;;;;;;5.67;37.55;102773.03;5011064;28;20396;-80
2022/03/18 09:54:30;;;;;;;7.05;3.95;;;;;;;5.86;34.50;102760.28;5011131;28;20113;-80
2022/03/18 09:56:56;;;;;;;7.63;3.80;;;;;;;6.02;36.76;102742.13;5010681;28;20440;-80
2022/03/18 09:59:27;;;;;;;11.07;6.28;;;;;;;5.96;35.29;102746.66;5009680;28;20041;-80
2022/03/18 10:02:25;;;;;;;11.88;5.35;;;;;;;6.28;33.08;102759.91;5011168;28;20500;-80
2022/03/18 10:04:58;;;;;;;7.25;4.47;;;;;;;5.89;35.00;102757.09;5010924;28;20389;-80
2022/03/18 10:07:26;;;;;;;8.10;3.70;;;;;;;6.23;35.72;102749.97;5009716;28;20032;-80
2022/03/18 10:10:23;;;;;;;9.50;4.82;;;;;;;6.19;35.00;102750.44;5011074;28;20033;-80
2022/03/18 10:12:50;;;;;;;6.32;4.00;;;;;;;6.43;35.60;102749.19;5008249;28;20135;-80
2022/03/18 10:15:18;;;;;;;9.98;6.15;;;;;;;6.55;37.50;102752.88;5008263;28;20041;-80
2022/03/18 10:17:47;;;;;;;10.45;6.93;;;;;;;6.26;38.39;102763.97;5008234;28;20416;-80
2022/03/18 10:20:22;;;;;;;11.13;6.22;;;;;;;6.09;37.37;102758.97;5008181;28;20069;-80
2022/03/18 10:22:49;;;;;;;7.47;3.75;;;;;;;5.59;34.62;102751.78;5007956;28;20053;-79
2022/03/18 10:25:35;;;;;;;7.00;4.15;;;;;;;5.96;34.76;102752.66;4990410;28;20068;-79
2022/03/18 10:28:00;;;;;;;6.88;4.10;;;;;;;6.08;34.92;102724.72;5008076;28;20030;-80
2022/03/18 10:30:27;;;;;;;6.32;4.03;;;;;;;6.26;33.60;102738.31;5008084;28;20050;-80
2022/03/18 10:32:54;;;;;;;7.90;3.92;;;;;;;6.39;32.61;102731.75;5008050;28;20083;-79
2022/03/18 10:38:26;;;;;;;10.63;5.32;;;;;;;6.61;33.90;102730.34;5008164;28;20061;-80
2022/03/18 10:40:53;;;;;;;10.20;5.80;;;;;;;6.70;36.64;102737.06;5008056;28;20034;-80
2022/03/18 10:43:20;;;;;;;10.02;5.65;;;;;;;6.71;34.35;102719.22;5007846;28;20034;-79
2022/03/18 10:46:05;;;;;;;9.85;5.20;;;;;;;6.76;35.44;102732.47;5008063;28;20033;-80
2022/03/18 10:48:32;;;;;;;13.88;5.05;;;;;;;6.67;34.86;102726.50;5010449;28;20042;-79
2022/03/18 10:51:07;;;;;;;8.88;5.05;;;;;;;6.55;35.19;102736.59;5014290;28;20109;-79
2022/03/18 10:53:34;;;;;;;8.55;5.10;;;;;;;6.63;37.26;102733.94;5014089;28;20038;-79
2022/03/18 10:56:04;;;;;;;6.50;4.18;;;;;;;6.75;34.27;102720.41;5014001;28;20033;-80
2022/03/18 10:58:33;;;;;;;;;;;;;;;7.09;35.38;102729.41;5014432;28;20041;-80
2022/03/18 11:01:03;;;;;;;6.63;3.83;;;;;;;7.22;32.70;102726.25;5013806;28;20413;-80
2022/03/18 11:03:31;;;;;;;7.15;4.13;;;;;;;7.28;37.89;102710.47;5013883;28;20033;-80
2022/03/18 11:06:02;;;;;;;33.25;20.10;;;;;;;6.95;33.80;102723.06;5014000;28;20030;-79
2022/03/18 11:08:35;;;;;;;7.53;4.38;;;;;;;7.36;36.47;102716.25;5027982;28;20041;-80
2022/03/18 11:11:11;;;;;;;8.23;4.38;;;;;;;7.49;33.04;102716.56;5013606;28;20078;-80
2022/03/18 11:13:48;;;;;;;9.00;4.13;;;;;;;7.21;32.74;102714.16;5013594;28;20476;-80
2022/03/18 11:16:19;;;;;;;8.35;5.57;;;;;;;7.15;33.17;102669.06;5013768;28;20461;-80
2022/03/18 11:18:45;;;;;;;12.93;8.75;;;;;;;7.11;33.66;102707.31;5013630;28;20482;-79
2022/03/18 11:21:12;;;;;;;7.13;4.40;;;;;;;7.17;34.41;102672.69;5013628;28;20044;-80
2022/03/18 11:23:40;;;;;;;7.60;4.40;;;;;;;7.37;32.49;102702.66;5012737;28;20085;-80
2022/03/18 11:26:07;;;;;;;9.93;4.07;;;;;;;7.27;33.50;102695.81;5013567;28;20022;-80
2022/03/18 11:28:33;;;;;;;6.10;3.70;;;;;;;7.52;32.33;102675.69;5013466;28;20037;-80
2022/03/18 11:31:07;;;;;;;6.45;3.63;;;;;;;7.78;31.33;102685.59;5013029;28;20030;-80
2022/03/18 11:33:34;;;;;;;7.15;4.30;;;;;;;7.63;31.47;102640.59;5013300;28;20459;-80
2022/03/18 11:36:07;;;;;;;10.23;5.00;;;;;;;7.34;30.59;102639.06;5025720;28;20042;-80
2022/03/18 11:38:56;;;;;;;7.18;4.63;;;;;;;7.60;30.24;102678.88;5013289;28;20026;-80